createdAt,value
2016-07-12T14:02:46.126Z,3636
2016-07-12T14:03:43.121Z,3644
2016-07-12T14:04:42.412Z,3636
2016-07-12T14:05:43.147Z,3624
2016-07-12T14:06:42.389Z,3592
2016-07-12T14:07:42.914Z,3572
2016-07-12T14:08:42.418Z,3584
2016-07-12T14:09:42.483Z,3780
2016-07-12T14:11:44.494Z,4680
2016-07-12T14:12:42.685Z,4520
2016-07-12T14:13:42.601Z,4432
2016-07-12T14:14:44.531Z,4144
2016-07-12T14:15:42.558Z,4064
2016-07-12T14:16:43.124Z,4020
2016-07-12T14:17:43.812Z,3912
2016-07-12T14:18:42.484Z,3872
2016-07-12T14:19:42.507Z,3516
2016-07-12T14:20:42.366Z,4160
2016-07-12T14:21:44.446Z,4652
2016-07-12T14:22:42.716Z,4416
2016-07-12T14:23:46.020Z,4224
2016-07-12T14:24:42.578Z,4188
2016-07-12T14:25:46.864Z,4300
2016-07-12T14:26:44.065Z,4216
2016-07-12T14:27:42.605Z,3996
2016-07-12T14:28:44.082Z,3904
2016-07-12T14:29:47.961Z,4004
2016-07-12T14:30:42.870Z,4096
2016-07-12T14:31:43.117Z,4052
2016-07-12T14:32:44.255Z,3968
2016-07-12T14:33:45.756Z,4108
2016-07-12T14:34:42.877Z,4228
2016-07-12T14:35:42.516Z,4212
2016-07-12T14:36:43.637Z,4088
2016-07-12T14:37:43.369Z,4268
2016-07-12T14:38:43.396Z,4824
2016-07-12T14:39:42.693Z,5244
2016-07-12T14:40:42.796Z,5572
2016-07-12T14:41:43.882Z,5144
2016-07-12T14:42:42.827Z,4604
2016-07-12T14:43:42.922Z,4496
2016-07-12T14:44:42.680Z,4332
2016-07-12T14:45:42.865Z,4320
2016-07-12T14:46:42.622Z,4308
2016-07-12T14:47:43.423Z,4648
2016-07-12T14:48:44.001Z,5512
2016-07-12T14:49:43.217Z,6412
2016-07-12T14:50:43.091Z,6620
2016-07-12T14:51:42.836Z,6668
2016-07-12T14:52:43.287Z,6264
2016-07-12T14:53:43.348Z,6004
2016-07-12T14:54:43.466Z,5748
2016-07-12T14:55:43.194Z,5376
2016-07-12T14:56:43.565Z,4944
2016-07-12T14:57:43.149Z,4576
2016-07-12T14:58:42.860Z,4272
2016-07-12T14:59:43.006Z,4220
2016-07-12T15:00:42.983Z,4324
2016-07-12T15:01:42.866Z,4824
2016-07-12T15:02:43.063Z,4576
2016-07-12T15:03:58.097Z,4176
2016-07-12T15:04:44.050Z,4048
2016-07-12T15:05:44.541Z,4012
2016-07-12T15:06:43.685Z,4020
2016-07-12T15:07:43.100Z,3980
2016-07-12T15:08:44.025Z,3920
2016-07-12T15:09:43.126Z,3884
2016-07-12T15:10:44.678Z,3828
2016-07-12T15:11:46.346Z,3800
2016-07-12T15:12:43.113Z,3792
2016-07-12T15:13:44.116Z,3800
2016-07-12T15:14:43.211Z,3796
2016-07-12T15:15:43.049Z,3812
2016-07-12T15:16:43.218Z,3852
2016-07-12T15:17:43.191Z,3884
2016-07-12T15:18:43.144Z,3932
2016-07-12T15:19:43.136Z,3960
2016-07-12T15:20:43.834Z,3960
2016-07-12T15:21:43.280Z,3932
2016-07-12T15:22:43.307Z,3900
2016-07-12T15:23:43.221Z,3884
2016-07-12T15:24:43.333Z,3828
2016-07-12T15:25:43.341Z,3756
2016-07-12T15:26:44.100Z,3688
2016-07-12T15:27:47.826Z,3656
2016-07-12T15:28:43.233Z,3664
2016-07-12T15:29:43.254Z,3668
2016-07-12T15:30:43.352Z,3660
2016-07-12T15:31:44.144Z,3628
2016-07-12T15:32:44.142Z,3596
2016-07-12T15:33:43.443Z,3572
2016-07-12T15:34:43.428Z,3544
2016-07-12T15:35:44.160Z,3512
2016-07-12T15:36:43.452Z,3492
2016-07-12T15:37:43.485Z,3476
2016-07-12T15:38:43.474Z,3440
2016-07-12T15:39:43.451Z,3400
2016-07-12T15:40:44.239Z,3360
2016-07-12T15:41:43.490Z,3328
2016-07-12T15:42:43.482Z,3300
2016-07-12T15:43:44.282Z,3264
2016-07-12T15:44:44.273Z,3236
2016-07-12T15:45:43.537Z,3208
2016-07-12T15:46:43.548Z,3176
2016-07-12T15:47:43.618Z,3148
2016-07-12T15:48:43.606Z,3128
2016-07-12T15:49:43.632Z,3108
2016-07-12T15:50:43.617Z,3088
2016-07-12T15:51:45.051Z,3076
2016-07-12T15:52:46.259Z,3072
2016-07-12T15:53:45.036Z,3064
2016-07-12T15:54:44.382Z,3048
2016-07-12T15:55:44.339Z,3036
2016-07-12T15:56:44.195Z,3024
2016-07-12T15:57:44.636Z,3008
2016-07-12T15:58:45.912Z,2996
2016-07-12T15:59:44.328Z,2980
2016-07-12T16:00:44.557Z,2956
2016-07-12T16:01:44.442Z,2932
2016-07-12T16:02:50.197Z,2908
2016-07-12T16:03:43.946Z,2892
2016-07-12T16:04:44.726Z,2872
2016-07-12T16:05:44.838Z,2856
2016-07-12T16:06:45.132Z,2840
2016-07-12T16:07:43.922Z,2824
2016-07-12T16:08:43.870Z,2816
2016-07-12T16:09:44.698Z,2808
2016-07-12T16:10:45.967Z,2796
2016-07-12T16:11:44.275Z,2788
2016-07-12T16:12:43.995Z,2776
2016-07-12T16:13:44.030Z,2768
2016-07-12T16:14:43.959Z,2748
2016-07-12T16:15:44.609Z,2736
2016-07-12T16:16:44.663Z,2728
2016-07-12T16:17:43.945Z,2720
2016-07-12T16:18:44.214Z,2720
2016-07-12T16:19:44.795Z,2712
2016-07-12T16:20:44.713Z,2700
2016-07-12T16:21:45.898Z,2696
2016-07-12T16:22:44.022Z,2688
2016-07-12T16:23:44.064Z,2684
2016-07-12T16:24:45.072Z,2676
2016-07-12T16:25:44.126Z,2668
2016-07-12T16:26:44.272Z,2660
2016-07-12T16:27:44.041Z,2648
2016-07-12T16:28:44.103Z,2636
2016-07-12T16:31:16.220Z,2616
2016-07-12T18:12:25.469Z,1192
2016-07-12T18:13:26.679Z,1164
2016-07-12T18:14:28.261Z,1136
2016-07-12T18:15:28.254Z,1108
2016-07-12T18:16:26.784Z,1084
2016-07-12T18:17:24.441Z,1056
2016-07-12T18:18:25.139Z,1028
2016-07-12T18:19:25.154Z,1000
2016-07-12T18:20:24.440Z,976
2016-07-12T18:21:24.319Z,944
2016-07-12T18:22:24.475Z,920
2016-07-12T18:23:24.528Z,896
2016-07-12T18:24:26.096Z,860
2016-07-12T18:25:24.486Z,832
2016-07-12T18:26:24.941Z,804
2016-07-12T18:27:40.966Z,772
2016-07-12T18:28:25.073Z,748
2016-07-12T18:29:28.829Z,716
2016-07-12T18:30:25.269Z,692
2016-07-12T18:31:25.662Z,664
2016-07-12T18:32:26.321Z,636
2016-07-12T18:33:39.741Z,600
2016-07-12T18:34:24.875Z,580
2016-07-12T19:48:05.050Z,0
2016-07-12T19:49:05.658Z,0
2016-07-12T19:50:04.209Z,0
2016-07-12T19:51:04.244Z,0
2016-07-12T19:52:04.889Z,0
2016-07-12T19:53:04.242Z,0
2016-07-12T19:54:04.197Z,0
2016-07-12T19:55:04.421Z,0
2016-07-12T19:56:04.217Z,0
2016-07-12T19:57:04.214Z,0
2016-07-12T19:58:04.261Z,0
2016-07-12T19:59:04.911Z,0
2016-07-12T20:00:04.280Z,0
2016-07-12T20:01:04.978Z,0
2016-07-12T20:02:04.238Z,0
2016-07-12T20:03:04.269Z,0
2016-07-12T20:04:04.174Z,0
2016-07-12T20:05:04.323Z,0
2016-07-12T20:06:04.314Z,0
2016-07-12T20:07:04.278Z,0
2016-07-12T20:08:04.300Z,0
2016-07-12T20:09:04.223Z,0
2016-07-12T20:10:04.318Z,0
2016-07-12T20:11:04.195Z,0
2016-07-12T20:12:40.310Z,0
2016-07-12T20:13:40.299Z,0
2016-07-12T20:14:40.338Z,0
2016-07-12T20:15:40.359Z,0
2016-07-12T20:16:40.367Z,0
2016-07-12T20:17:40.384Z,0
2016-07-12T20:18:40.333Z,0
2016-07-12T20:19:40.343Z,0
2016-07-12T20:20:40.347Z,0
2016-07-12T20:21:41.103Z,0
2016-07-12T20:22:40.404Z,0
2016-07-12T20:23:41.146Z,0
2016-07-12T20:24:40.412Z,0
2016-07-12T20:25:40.381Z,0
2016-07-12T20:26:40.384Z,0
2016-07-12T20:27:40.415Z,0
2016-07-12T20:28:40.418Z,0
2016-07-12T20:29:41.216Z,0
2016-07-12T20:30:41.189Z,0
2016-07-12T20:31:40.420Z,0
2016-07-12T20:32:40.446Z,0
2016-07-12T20:33:40.447Z,0
2016-07-12T20:34:40.459Z,0
2016-07-12T20:35:40.449Z,0
2016-07-12T20:36:40.456Z,0
2016-07-12T20:37:40.497Z,0
2016-07-12T20:38:41.231Z,0
2016-07-12T20:39:40.455Z,0
2016-07-12T20:40:41.211Z,0
2016-07-12T20:41:40.525Z,0
2016-07-12T20:42:40.480Z,0
2016-07-12T20:43:40.418Z,0
2016-07-12T20:44:41.292Z,0
2016-07-12T20:45:40.542Z,0
2016-07-12T20:46:40.586Z,0
2016-07-12T20:47:40.552Z,0
2016-07-12T20:48:40.646Z,0
2016-07-12T20:49:41.271Z,0
2016-07-12T20:50:40.610Z,0
2016-07-12T20:51:41.304Z,0
2016-07-12T20:52:41.283Z,0
2016-07-12T20:53:40.497Z,0
2016-07-12T20:54:40.564Z,0
2016-07-12T20:55:40.578Z,0
2016-07-12T20:56:40.575Z,0
2016-07-12T20:57:41.321Z,0
2016-07-12T20:58:40.630Z,0
2016-07-12T20:59:40.609Z,0
2016-07-12T21:00:41.312Z,0
2016-07-12T21:01:40.619Z,0
2016-07-12T21:02:40.626Z,0
2016-07-12T21:04:26.929Z,0
2016-07-12T21:05:26.177Z,0
2016-07-12T21:06:26.944Z,0
2016-07-12T21:08:16.289Z,0
2016-07-12T21:09:16.276Z,0
2016-07-12T21:10:16.302Z,0
2016-07-12T21:11:16.333Z,0
2016-07-12T21:12:16.345Z,0
2016-07-12T21:13:17.099Z,0
2016-07-12T21:14:16.300Z,0
2016-07-12T21:15:16.310Z,0
2016-07-12T21:16:16.323Z,0
2016-07-12T21:17:16.324Z,0
2016-07-12T21:18:17.129Z,0
2016-07-12T21:19:17.140Z,0
2016-07-12T21:20:16.389Z,0
2016-07-12T21:21:16.351Z,0
2016-07-12T21:22:16.378Z,0
2016-07-12T21:23:17.134Z,0
2016-07-12T21:24:16.411Z,0
2016-07-12T21:25:16.409Z,0
2016-07-12T21:26:16.440Z,0
2016-07-12T21:27:17.172Z,0
2016-07-12T21:28:16.371Z,0
2016-07-12T21:29:16.451Z,0
2016-07-12T21:30:16.451Z,0
2016-07-12T21:31:16.441Z,0
2016-07-12T21:32:16.451Z,0
2016-07-12T21:33:16.495Z,0
2016-07-12T21:34:17.223Z,0
2016-07-12T21:35:16.666Z,0
2016-07-12T21:36:16.475Z,0
2016-07-12T21:37:17.985Z,0
2016-07-12T21:38:16.444Z,0
2016-07-12T21:39:17.269Z,0
2016-07-12T21:40:16.559Z,0
2016-07-12T21:41:17.217Z,0
2016-07-12T21:42:18.046Z,0
2016-07-12T21:43:16.563Z,0
2016-07-12T21:44:17.255Z,0
2016-07-12T21:45:16.547Z,0
2016-07-12T21:46:25.221Z,0
2016-07-12T21:47:17.342Z,0
2016-07-12T21:48:16.535Z,0
2016-07-12T21:49:16.724Z,0
2016-07-12T21:50:17.329Z,0
2016-07-12T21:51:17.046Z,0
2016-07-12T21:52:17.558Z,0
2016-07-12T21:53:32.327Z,0
2016-07-12T21:54:16.782Z,0
2016-07-12T21:55:16.654Z,0
2016-07-12T21:56:16.635Z,0
2016-07-12T21:57:16.664Z,0
2016-07-12T21:58:16.679Z,0
2016-07-12T21:59:16.697Z,0
2016-07-12T22:00:17.337Z,0
2016-07-12T22:01:16.678Z,0
2016-07-12T22:02:17.443Z,0
2016-07-12T22:03:17.455Z,0
2016-07-12T22:04:16.743Z,0
2016-07-12T22:05:16.707Z,0
2016-07-12T22:06:16.685Z,0
2016-07-12T22:07:16.765Z,0
2016-07-12T22:08:16.756Z,0
2016-07-12T22:09:31.474Z,0
2016-07-12T22:10:18.292Z,0
2016-07-12T22:11:32.598Z,0
2016-07-12T22:12:16.958Z,0
2016-07-12T22:13:17.083Z,0
2016-07-12T22:14:17.867Z,0
2016-07-12T22:15:16.808Z,0
2016-07-12T22:16:16.953Z,0
2016-07-12T22:17:17.605Z,0
2016-07-12T22:18:16.848Z,0
2016-07-12T22:19:16.820Z,0
2016-07-12T22:20:16.856Z,0
2016-07-12T22:21:17.632Z,0
2016-07-12T22:22:16.870Z,0
2016-07-12T22:23:16.850Z,0
2016-07-12T22:24:16.863Z,0
2016-07-12T22:25:16.885Z,0
2016-07-12T22:26:17.560Z,0
2016-07-12T22:27:17.630Z,0
2016-07-12T22:28:16.931Z,0
2016-07-12T22:29:20.650Z,0
2016-07-12T22:30:17.669Z,0
2016-07-12T22:31:16.966Z,0
2016-07-12T22:32:17.028Z,0
2016-07-12T22:33:17.087Z,0
2016-07-12T22:34:16.904Z,0
2016-07-12T22:35:17.663Z,0
2016-07-12T22:36:17.556Z,0
2016-07-12T22:37:17.288Z,0
2016-07-12T22:38:16.999Z,0
2016-07-12T22:39:17.038Z,0
2016-07-12T22:40:17.761Z,0
2016-07-12T22:41:17.034Z,0
2016-07-12T22:42:17.721Z,0
2016-07-12T22:43:16.980Z,0
2016-07-12T22:44:17.159Z,0
2016-07-12T22:45:16.926Z,0
2016-07-12T22:46:17.809Z,0
2016-07-12T22:47:17.969Z,0
2016-07-12T22:48:17.381Z,0
2016-07-12T22:49:17.048Z,0
2016-07-12T22:50:31.777Z,0
2016-07-12T22:51:17.117Z,0
2016-07-12T22:52:18.297Z,0
2016-07-12T22:53:17.118Z,0
2016-07-12T22:54:17.151Z,0
2016-07-12T22:55:17.246Z,0
2016-07-12T22:56:31.842Z,0
2016-07-12T22:57:17.135Z,0
2016-07-12T22:58:17.144Z,0
2016-07-12T22:59:17.144Z,0
2016-07-12T23:00:17.897Z,0
2016-07-12T23:01:17.114Z,0
2016-07-12T23:02:17.160Z,0
2016-07-12T23:03:17.191Z,0
2016-07-12T23:04:17.323Z,0
2016-07-12T23:05:17.222Z,0
2016-07-12T23:06:17.948Z,0
2016-07-12T23:07:17.196Z,0
2016-07-12T23:08:18.306Z,0
2016-07-12T23:10:25.531Z,0
2016-07-12T23:11:21.884Z,0
2016-07-12T23:12:17.228Z,0
2016-07-12T23:13:17.419Z,0
2016-07-12T23:14:17.292Z,0
2016-07-12T23:15:17.291Z,0
2016-07-12T23:16:17.282Z,0
2016-07-12T23:17:18.263Z,0
2016-07-12T23:18:18.501Z,0
2016-07-12T23:19:17.311Z,0
2016-07-12T23:20:17.328Z,0
2016-07-12T23:21:17.355Z,0
2016-07-12T23:22:17.877Z,0
2016-07-12T23:23:17.377Z,0
2016-07-12T23:24:17.368Z,0
2016-07-12T23:25:17.364Z,0
2016-07-12T23:26:17.425Z,0
2016-07-12T23:27:17.387Z,0
2016-07-12T23:28:17.375Z,0
2016-07-12T23:29:18.808Z,0
2016-07-12T23:30:17.871Z,0
2016-07-12T23:31:17.469Z,0
2016-07-12T23:32:17.409Z,0
2016-07-12T23:33:32.818Z,0
2016-07-12T23:34:17.408Z,0
2016-07-12T23:35:17.467Z,0
2016-07-12T23:36:48.868Z,0
2016-07-12T23:37:23.457Z,0
2016-07-12T23:38:22.703Z,0
2016-07-12T23:39:23.439Z,0
2016-07-12T23:40:23.382Z,0
2016-07-12T23:41:17.470Z,0
2016-07-12T23:42:17.486Z,0
2016-07-12T23:43:18.058Z,0
2016-07-12T23:44:17.570Z,0
2016-07-12T23:45:18.176Z,0
2016-07-12T23:46:26.371Z,0
2016-07-12T23:47:17.511Z,0
2016-07-12T23:48:34.591Z,0
2016-07-12T23:49:17.499Z,0
2016-07-12T23:50:17.536Z,0
2016-07-12T23:51:18.235Z,0
2016-07-12T23:52:17.687Z,0
2016-07-12T23:53:17.676Z,0
2016-07-12T23:54:18.159Z,0
2016-07-12T23:55:17.571Z,0
2016-07-12T23:56:18.511Z,0
2016-07-12T23:57:17.609Z,0
2016-07-12T23:58:17.617Z,0
2016-07-12T23:59:18.346Z,0
